ホーチミン の空港の天気 - METARとTAF

タンソンニャット国際空港 (ホーチミン) ( VVTS / SGN ) - ベトナム ホーチミン市
飛行場実況気象(Metar)
観測時間12/01 03:00 ICT (11/30 20:00 UTC)
風向・風速西北西 1m/s
視程8000m
天気現象
少しの雲 雲底高度 520m
全天の4割程度の雲 雲底高度 1520m
気温25℃
湿度100%
気圧1009hPa
METARVVTS 302000Z 30002KT 8000 FEW017 SCT050 25/25 Q1009 NOSIG
過去の天気等 Google飛行場航空写真 Wunderground天気予報

過去48時間のMETAR

飛行場予報(TAF)
発表時間: 12/01 00:00 ICT (11/30 17:00 UTC)
予報対象時間: 1日1時 ICT ~ 2日7時 ICT
風向・風速北東 3m/s
視程10km以上
全天の4割程度の雲 雲底高度 520m
全天の8割程度の雲 雲底高度 1520m
TAF VVTS 301700Z 3018/0124 05006KT 9999 SCT017 BKN050